Time;durP1;ratioP1;P1;durP2;ratioP2;P2;SDS_P1;SDS_P2;PMS_P1;PMS_P2;Temp;Humidity;BMP_temperature;BMP_pressure;BME280_temperature;BME280_humidity;BME280_pressure;Samples;Min_cycle;Max_cycle;Signal;HPM_P1;HPM_P2
2022/09/18 00:00:25;;;;;;;;;;;;;;;;;;1896754;28;7076;-68
2022/09/18 00:01:24;;;;;;;;;;;;;;;;;;1897148;28;7070;-70
2022/09/18 00:02:22;;;;;;;;;;;;;;;;;;1896867;28;7117;-69
2022/09/18 00:03:20;;;;;;;;;;;;;;;;;;1896597;28;7030;-70
2022/09/18 00:04:17;;;;;;;;;;;;;;;;;;1896803;28;7017;-70
2022/09/18 00:05:15;;;;;;;;;;;;;;;;;;1897157;28;7006;-70
2022/09/18 00:06:14;;;;;;;;;;;;;;;;;;1896886;28;7120;-69
2022/09/18 00:07:11;;;;;;;;;;;;;;;;;;1895696;28;7010;-68
2022/09/18 00:08:09;;;;;;;;;;;;;;;;;;1896586;28;7025;-70
2022/09/18 00:09:08;;;;;;;;;;;;;;;;;;1896939;28;8043;-70
2022/09/18 00:10:06;;;;;;;;;;;;;;;;;;1896558;28;7041;-71
2022/09/18 00:11:07;;;;;;;;;;;;;;;;;;1896940;28;7093;-69
2022/09/18 00:12:04;;;;;;;;;;;;;;;;;;1896762;28;7093;-70
2022/09/18 00:13:02;;;;;;;;;;;;;;;;;;1897434;28;7010;-69
2022/09/18 00:13:59;;;;;;;;;;;;;;;;;;1896000;28;7046;-70
2022/09/18 00:14:56;;;;;;;;;;;;;;;;;;1896931;28;7128;-69
2022/09/18 00:15:54;;;;;;;;;;;;;;;;;;1896417;28;7050;-69
2022/09/18 00:16:53;;;;;;;;;;;;;;;;;;1897228;28;7577;-68
2022/09/18 00:17:50;;;;;;;;;;;;;;;;;;1896474;28;7031;-68
2022/09/18 00:18:48;;;;;;;;;;;;;;;;;;1896502;28;7013;-69
2022/09/18 00:19:45;;;;;;;;;;;;;;;;;;1896504;28;7470;-72
2022/09/18 00:20:42;;;;;;;;;;;;;;;;;;1896639;28;7036;-70
2022/09/18 00:21:41;;;;;;;;;;;;;;;;;;1896841;28;7101;-71
2022/09/18 00:22:39;;;;;;;;;;;;;;;;;;1896880;28;7089;-69
2022/09/18 00:23:37;;;;;;;;;;;;;;;;;;1896948;28;7025;-69
2022/09/18 00:24:34;;;;;;;;;;;;;;;;;;1896524;28;7005;-70
2022/09/18 00:25:31;;;;;;;;;;;;;;;;;;1896912;28;7042;-70
2022/09/18 00:26:29;;;;;;;;;;;;;;;;;;1896192;28;7013;-70
2022/09/18 00:27:27;;;;;;;;;;;;;;;;;;1897274;28;7120;-69
2022/09/18 00:28:24;;;;;;;;;;;;;;;;;;1897260;28;7002;-69
2022/09/18 00:29:21;;;;;;;;;;;;;;;;;;1896871;28;7006;-71
2022/09/18 00:30:19;;;;;;;;;;;;;;;;;;1896596;28;7097;-68
2022/09/18 00:31:20;;;;;;;;;;;;;;;;;;1897027;28;7213;-69
2022/09/18 00:32:17;;;;;;;;;;;;;;;;;;1897452;28;7083;-70
2022/09/18 00:33:15;;;;;;;;;;;;;;;;;;1902958;28;7029;-69
2022/09/18 00:34:13;;;;;;;;;;;;;;;;;;1903997;28;7013;-67
2022/09/18 00:35:11;;;;;;;;;;;;;;;;;;1897141;28;7022;-69
2022/09/18 00:36:10;;;;;;;;;;;;;;;;;;1896610;28;7025;-68
2022/09/18 00:37:07;;;;;;;;;;;;;;;;;;1896781;28;7010;-68
2022/09/18 00:38:04;;;;;;;;;;;;;;;;;;1897003;28;7045;-68
2022/09/18 00:39:02;;;;;;;;;;;;;;;;;;1896662;28;7001;-70
2022/09/18 00:40:00;;;;;;;;;;;;;;;;;;1896845;28;7006;-70
2022/09/18 00:40:58;;;;;;;;;;;;;;;;;;1896340;28;7124;-69
2022/09/18 00:41:56;;;;;;;;;;;;;;;;;;1895888;28;7042;-71
2022/09/18 00:42:53;;;;;;;;;;;;;;;;;;1896874;28;7029;-69
2022/09/18 00:43:51;;;;;;;;;;;;;;;;;;1896789;28;7417;-69
2022/09/18 00:44:49;;;;;;;;;;;;;;;;;;1897909;28;7006;-69
2022/09/18 00:45:51;;;;;;;;;;;;;;;;;;1898306;28;7041;-70
2022/09/18 00:46:49;;;;;;;;;;;;;;;;;;1898466;28;7029;-69
2022/09/18 00:47:50;;;;;;;;;;;;;;;;;;1898378;28;7296;-71
2022/09/18 00:48:56;;;;;;;;;;;;;;;;;;1899137;28;7128;-71
2022/09/18 00:49:56;;;;;;;;;;;;;;;;;;1898949;28;7308;-71
2022/09/18 00:50:54;;;;;;;;;;;;;;;;;;1898068;28;7042;-70
2022/09/18 00:51:54;;;;;;;;;;;;;;;;;;1897908;28;7002;-71
2022/09/18 00:52:57;;;;;;;;;;;;;;;;;;1897678;28;7005;-70
2022/09/18 00:54:02;;;;;;;;;;;;;;;;;;1897623;28;7009;-70
2022/09/18 00:55:04;;;;;;;;;;;;;;;;;;1896984;28;7009;-70
2022/09/18 00:56:03;;;;;;;;;;;;;;;;;;1897539;28;7042;-71
2022/09/18 00:57:03;;;;;;;;;;;;;;;;;;1897176;28;7034;-69
2022/09/18 00:58:02;;;;;;;;;;;;;;;;;;1897646;28;7014;-70
2022/09/18 00:58:59;;;;;;;;;;;;;;;;;;1897961;28;7002;-70
2022/09/18 01:00:00;;;;;;;;;;;;;;;;;;1898461;28;7109;-69
2022/09/18 01:00:58;;;;;;;;;;;;;;;;;;1898420;28;7842;-71
2022/09/18 01:01:56;;;;;;;;;;;;;;;;;;1897603;28;7054;-71
2022/09/18 01:02:54;;;;;;;;;;;;;;;;;;1898272;28;7105;-72
2022/09/18 01:03:51;;;;;;;;;;;;;;;;;;1897942;28;7001;-70
2022/09/18 01:04:50;;;;;;;;;;;;;;;;;;1897648;28;7310;-71
2022/09/18 01:05:53;;;;;;;;;;;;;;;;;;1896994;28;7005;-70
2022/09/18 01:06:53;;;;;;;;;;;;;;;;;;1896264;28;7085;-70
2022/09/18 01:07:50;;;;;;;;;;;;;;;;;;1897794;28;7125;-71
2022/09/18 01:09:01;;;;;;;;;;;;;;;;;;1898213;28;7010;-69
2022/09/18 01:10:05;;;;;;;;;;;;;;;;;;1898317;28;7006;-69
2022/09/18 01:11:14;;;;;;;;;;;;;;;;;;1898044;28;7025;-71
2022/09/18 01:12:36;;;;;;;;;;;;;;;;;;1897996;28;7042;-70
2022/09/18 01:13:54;;;;;;;;;;;;;;;;;;1893896;28;8051;-70
2022/09/18 01:15:02;;;;;;;;;;;;;;;;;;1883235;28;7005;-70
2022/09/18 01:16:04;;;;;;;;;;;;;;;;;;1885862;28;7120;-69
2022/09/18 01:17:14;;;;;;;;;;;;;;;;;;1885768;28;7042;-70
2022/09/18 01:18:11;;;;;;;;;;;;;;;;;;1885807;28;7042;-70
2022/09/18 01:19:27;;;;;;;;;;;;;;;;;;1882880;28;7088;-70
2022/09/18 01:20:27;;;;;;;;;;;;;;;;;;1888977;28;7062;-71
2022/09/18 01:21:43;;;;;;;;;;;;;;;;;;1882278;28;7305;-69
2022/09/18 01:22:52;;;;;;;;;;;;;;;;;;1883926;28;7017;-70
2022/09/18 01:24:05;;;;;;;;;;;;;;;;;;1883440;28;7021;-69
2022/09/18 01:25:21;;;;;;;;;;;;;;;;;;1883104;28;7005;-69
2022/09/18 01:26:37;;;;;;;;;;;;;;;;;;1889683;28;7014;-71
2022/09/18 01:27:40;;;;;;;;;;;;;;;;;;1883914;28;7047;-68
2022/09/18 01:28:43;;;;;;;;;;;;;;;;;;1889059;28;8016;-69
2022/09/18 01:29:46;;;;;;;;;;;;;;;;;;1889373;28;7358;-70
2022/09/18 01:30:47;;;;;;;;;;;;;;;;;;1889161;28;7117;-69
2022/09/18 01:31:51;;;;;;;;;;;;;;;;;;1883114;28;7042;-69
2022/09/18 01:32:48;;;;;;;;;;;;;;;;;;1886267;28;8100;-68
2022/09/18 01:33:57;;;;;;;;;;;;;;;;;;1887372;28;7005;-71
2022/09/18 01:35:05;;;;;;;;;;;;;;;;;;1887828;28;7041;-69
2022/09/18 01:36:26;;;;;;;;;;;;;;;;;;1889848;28;7045;-71
2022/09/18 01:37:29;;;;;;;;;;;;;;;;;;1889276;28;7046;-69
2022/09/18 01:38:44;;;;;;;;;;;;;;;;;;1888719;28;7005;-70
2022/09/18 01:40:04;;;;;;;;;;;;;;;;;;1890210;28;7097;-70
2022/09/18 01:41:25;;;;;;;;;;;;;;;;;;1881619;28;7114;-68
2022/09/18 01:42:25;;;;;;;;;;;;;;;;;;1879567;28;7014;-70
2022/09/18 01:43:26;;;;;;;;;;;;;;;;;;1886086;28;7096;-71
2022/09/18 01:44:28;;;;;;;;;;;;;;;;;;1890209;28;7045;-72
2022/09/18 01:45:30;;;;;;;;;;;;;;;;;;1882679;28;7537;-70
2022/09/18 01:46:28;;;;;;;;;;;;;;;;;;1882268;28;7022;-71
2022/09/18 01:47:30;;;;;;;;;;;;;;;;;;1889743;28;7102;-70
2022/09/18 01:48:31;;;;;;;;;;;;;;;;;;1887049;28;8038;-71
2022/09/18 01:49:32;;;;;;;;;;;;;;;;;;1884866;28;7010;-68
2022/09/18 01:50:32;;;;;;;;;;;;;;;;;;1882893;28;7093;-68
2022/09/18 01:51:42;;;;;;;;;;;;;;;;;;1889676;28;7010;-68
2022/09/18 01:52:45;;;;;;;;;;;;;;;;;;1885914;28;7238;-69
2022/09/18 01:53:47;;;;;;;;;;;;;;;;;;1889184;28;7025;-69
2022/09/18 01:54:48;;;;;;;;;;;;;;;;;;1890812;28;7105;-71
2022/09/18 01:55:51;;;;;;;;;;;;;;;;;;1890561;28;7022;-69
2022/09/18 01:57:00;;;;;;;;;;;;;;;;;;1884179;28;7022;-68
2022/09/18 01:58:02;;;;;;;;;;;;;;;;;;1883044;28;7006;-70
2022/09/18 01:59:03;;;;;;;;;;;;;;;;;;1887311;28;7034;-68
2022/09/18 02:00:06;;;;;;;;;;;;;;;;;;1882747;28;7138;-68
2022/09/18 02:01:08;;;;;;;;;;;;;;;;;;1884486;28;8056;-70
2022/09/18 02:02:10;;;;;;;;;;;;;;;;;;1874582;28;7006;-69
2022/09/18 02:03:25;;;;;;;;;;;;;;;;;;1874992;28;7092;-70
2022/09/18 02:04:26;;;;;;;;;;;;;;;;;;1882737;28;7042;-70
2022/09/18 02:05:28;;;;;;;;;;;;;;;;;;1882605;28;7023;-70
2022/09/18 02:06:32;;;;;;;;;;;;;;;;;;1882526;28;7100;-69
2022/09/18 02:07:39;;;;;;;;;;;;;;;;;;1881445;28;7128;-70
2022/09/18 02:08:41;;;;;;;;;;;;;;;;;;1881724;28;7014;-70
2022/09/18 02:09:39;;;;;;;;;;;;;;;;;;1882707;28;7149;-70
2022/09/18 02:10:41;;;;;;;;;;;;;;;;;;1884699;28;7046;-69
2022/09/18 02:11:44;;;;;;;;;;;;;;;;;;1884175;28;7680;-69
2022/09/18 02:12:43;;;;;;;;;;;;;;;;;;1882311;28;7009;-69
2022/09/18 02:13:48;;;;;;;;;;;;;;;;;;1890063;28;7055;-69
2022/09/18 02:14:49;;;;;;;;;;;;;;;;;;1897922;28;7364;-68
2022/09/18 02:15:48;;;;;;;;;;;;;;;;;;1897837;28;7053;-70
2022/09/18 02:16:53;;;;;;;;;;;;;;;;;;1897088;28;7005;-70
2022/09/18 02:17:55;;;;;;;;;;;;;;;;;;1896555;28;7005;-70
2022/09/18 02:18:55;;;;;;;;;;;;;;;;;;1896459;28;7338;-68
2022/09/18 02:19:57;;;;;;;;;;;;;;;;;;1897610;28;7009;-70
2022/09/18 02:20:56;;;;;;;;;;;;;;;;;;1897724;28;7221;-70
2022/09/18 02:21:56;;;;;;;;;;;;;;;;;;1896338;28;7082;-69
2022/09/18 02:22:56;;;;;;;;;;;;;;;;;;1897179;28;7981;-70
2022/09/18 02:23:57;;;;;;;;;;;;;;;;;;1897753;28;7160;-70
2022/09/18 02:24:58;;;;;;;;;;;;;;;;;;1897346;28;7037;-71
2022/09/18 02:25:59;;;;;;;;;;;;;;;;;;1898169;28;7054;-71
2022/09/18 02:26:59;;;;;;;;;;;;;;;;;;1897752;28;8206;-70
2022/09/18 02:27:57;;;;;;;;;;;;;;;;;;1897630;28;7088;-70
2022/09/18 02:28:56;;;;;;;;;;;;;;;;;;1897749;28;7089;-70
2022/09/18 02:29:54;;;;;;;;;;;;;;;;;;1897470;28;7089;-70
2022/09/18 02:30:51;;;;;;;;;;;;;;;;;;1897831;28;8079;-70
2022/09/18 02:31:49;;;;;;;;;;;;;;;;;;1897250;28;7179;-69
2022/09/18 02:32:46;;;;;;;;;;;;;;;;;;1897145;28;7054;-70
2022/09/18 02:33:44;;;;;;;;;;;;;;;;;;1897800;28;7042;-68
2022/09/18 02:34:41;;;;;;;;;;;;;;;;;;1897450;28;7053;-71
2022/09/18 02:35:44;;;;;;;;;;;;;;;;;;1897369;28;7109;-70
2022/09/18 02:36:57;;;;;;;;;;;;;;;;;;1896923;28;7360;-69
2022/09/18 02:37:54;;;;;;;;;;;;;;;;;;1897525;28;7092;-68
2022/09/18 02:38:52;;;;;;;;;;;;;;;;;;1896308;28;7093;-70
2022/09/18 02:40:05;;;;;;;;;;;;;;;;;;1896689;28;7092;-68
2022/09/18 02:41:03;;;;;;;;;;;;;;;;;;1897523;28;7005;-67
2022/09/18 02:42:19;;;;;;;;;;;;;;;;;;1897563;28;7129;-69
2022/09/18 02:43:19;;;;;;;;;;;;;;;;;;1897298;28;7014;-69
2022/09/18 02:44:22;;;;;;;;;;;;;;;;;;1897292;28;7009;-69
2022/09/18 02:45:32;;;;;;;;;;;;;;;;;;1897359;28;7013;-69
2022/09/18 02:46:29;;;;;;;;;;;;;;;;;;1897475;28;7018;-69
2022/09/18 02:47:45;;;;;;;;;;;;;;;;;;1897170;28;7353;-70
2022/09/18 02:48:51;;;;;;;;;;;;;;;;;;1896581;28;7010;-71
2022/09/18 02:49:51;;;;;;;;;;;;;;;;;;1894978;28;7128;-69
2022/09/18 02:51:07;;;;;;;;;;;;;;;;;;1896716;28;7010;-68
2022/09/18 02:52:14;;;;;;;;;;;;;;;;;;1897048;28;7088;-70
2022/09/18 02:53:14;;;;;;;;;;;;;;;;;;1897492;28;7092;-69
2022/09/18 02:54:29;;;;;;;;;;;;;;;;;;1896797;28;7002;-69
2022/09/18 02:55:31;;;;;;;;;;;;;;;;;;1896506;28;7108;-68
2022/09/18 02:56:28;;;;;;;;;;;;;;;;;;1897291;28;7009;-70
2022/09/18 02:57:33;;;;;;;;;;;;;;;;;;1897168;28;7109;-68
2022/09/18 02:58:33;;;;;;;;;;;;;;;;;;1897274;28;7010;-70
2022/09/18 02:59:36;;;;;;;;;;;;;;;;;;1897405;28;7113;-70
2022/09/18 03:00:35;;;;;;;;;;;;;;;;;;1895204;28;7001;-71
2022/09/18 03:01:33;;;;;;;;;;;;;;;;;;1896075;28;7005;-71
2022/09/18 03:02:30;;;;;;;;;;;;;;;;;;1896853;28;7113;-69
2022/09/18 03:03:29;;;;;;;;;;;;;;;;;;1897411;28;7017;-68
2022/09/18 03:04:27;;;;;;;;;;;;;;;;;;1896920;28;7010;-70
2022/09/18 03:05:25;;;;;;;;;;;;;;;;;;1894894;28;7096;-70
2022/09/18 03:06:22;;;;;;;;;;;;;;;;;;1896033;28;7392;-70
2022/09/18 03:07:19;;;;;;;;;;;;;;;;;;1896029;28;7017;-69
2022/09/18 03:08:18;;;;;;;;;;;;;;;;;;1897481;28;7364;-68
2022/09/18 03:09:15;;;;;;;;;;;;;;;;;;1897220;28;7017;-70
2022/09/18 03:10:12;;;;;;;;;;;;;;;;;;1896937;28;7376;-71
2022/09/18 03:11:10;;;;;;;;;;;;;;;;;;1897013;28;7006;-70
2022/09/18 03:12:07;;;;;;;;;;;;;;;;;;1897174;28;7021;-68
2022/09/18 03:13:05;;;;;;;;;;;;;;;;;;1896610;28;7010;-70
2022/09/18 03:14:03;;;;;;;;;;;;;;;;;;1890399;28;7236;-70
2022/09/18 03:15:00;;;;;;;;;;;;;;;;;;1892276;28;7096;-69
2022/09/18 03:15:57;;;;;;;;;;;;;;;;;;1894550;28;7049;-70
2022/09/18 03:16:55;;;;;;;;;;;;;;;;;;1897079;28;7053;-70
2022/09/18 03:17:52;;;;;;;;;;;;;;;;;;1896536;28;7017;-67
2022/09/18 03:18:49;;;;;;;;;;;;;;;;;;1896342;28;7097;-68
2022/09/18 03:19:47;;;;;;;;;;;;;;;;;;1897152;28;7049;-70
2022/09/18 03:20:44;;;;;;;;;;;;;;;;;;1897425;28;8027;-68
2022/09/18 03:21:42;;;;;;;;;;;;;;;;;;1897530;28;7017;-69
2022/09/18 03:22:39;;;;;;;;;;;;;;;;;;1897031;28;7009;-71
2022/09/18 03:23:36;;;;;;;;;;;;;;;;;;1896841;28;8103;-70
2022/09/18 03:24:38;;;;;;;;;;;;;;;;;;1896956;28;7042;-69
2022/09/18 03:25:35;;;;;;;;;;;;;;;;;;1897105;28;7029;-70
2022/09/18 03:26:33;;;;;;;;;;;;;;;;;;1897172;28;7010;-70
2022/09/18 03:27:30;;;;;;;;;;;;;;;;;;1897211;28;7005;-70
2022/09/18 03:28:29;;;;;;;;;;;;;;;;;;1896607;28;7417;-69
2022/09/18 03:29:27;;;;;;;;;;;;;;;;;;1896948;28;8587;-68
2022/09/18 03:30:24;;;;;;;;;;;;;;;;;;1897075;28;7209;-71
2022/09/18 03:31:22;;;;;;;;;;;;;;;;;;1896943;28;8031;-70
2022/09/18 03:32:20;;;;;;;;;;;;;;;;;;1896697;28;7215;-71
2022/09/18 03:33:17;;;;;;;;;;;;;;;;;;1896149;28;8170;-69
2022/09/18 03:34:14;;;;;;;;;;;;;;;;;;1895681;28;7197;-69
2022/09/18 03:35:12;;;;;;;;;;;;;;;;;;1897456;28;8032;-68
2022/09/18 03:36:09;;;;;;;;;;;;;;;;;;1896039;28;7088;-69
2022/09/18 03:37:07;;;;;;;;;;;;;;;;;;1896330;28;7021;-70
2022/09/18 03:38:04;;;;;;;;;;;;;;;;;;1895925;28;7046;-69
2022/09/18 03:39:02;;;;;;;;;;;;;;;;;;1897411;28;7005;-71
2022/09/18 03:39:59;;;;;;;;;;;;;;;;;;1896829;28;7009;-69
2022/09/18 03:40:57;;;;;;;;;;;;;;;;;;1896949;28;7089;-70
2022/09/18 03:41:54;;;;;;;;;;;;;;;;;;1896962;28;7006;-71
2022/09/18 03:42:52;;;;;;;;;;;;;;;;;;1897057;28;7339;-70
2022/09/18 03:43:50;;;;;;;;;;;;;;;;;;1896704;28;7010;-68
2022/09/18 03:44:47;;;;;;;;;;;;;;;;;;1895612;28;7014;-70
2022/09/18 03:45:44;;;;;;;;;;;;;;;;;;1896731;28;7046;-70
2022/09/18 03:46:41;;;;;;;;;;;;;;;;;;1895681;28;7146;-70
2022/09/18 03:47:39;;;;;;;;;;;;;;;;;;1896838;28;7304;-69
2022/09/18 03:48:36;;;;;;;;;;;;;;;;;;1897382;28;7009;-71
2022/09/18 03:49:34;;;;;;;;;;;;;;;;;;1896765;28;7093;-68
2022/09/18 03:50:31;;;;;;;;;;;;;;;;;;1896325;28;7005;-70
2022/09/18 03:51:29;;;;;;;;;;;;;;;;;;1896644;28;7093;-68
2022/09/18 03:52:26;;;;;;;;;;;;;;;;;;1896762;28;7046;-70
2022/09/18 03:53:23;;;;;;;;;;;;;;;;;;1897516;28;8030;-68
2022/09/18 03:54:21;;;;;;;;;;;;;;;;;;1897140;28;7096;-68
2022/09/18 03:55:18;;;;;;;;;;;;;;;;;;1896946;28;7165;-68
2022/09/18 03:56:16;;;;;;;;;;;;;;;;;;1896282;28;7110;-70
2022/09/18 03:57:13;;;;;;;;;;;;;;;;;;1896847;28;7029;-69
2022/09/18 03:58:11;;;;;;;;;;;;;;;;;;1896759;28;7010;-69
2022/09/18 03:59:08;;;;;;;;;;;;;;;;;;1897209;28;7073;-70
2022/09/18 04:00:06;;;;;;;;;;;;;;;;;;1896172;28;7010;-68
2022/09/18 04:01:04;;;;;;;;;;;;;;;;;;1897006;28;7005;-70
2022/09/18 04:02:01;;;;;;;;;;;;;;;;;;1897318;28;7009;-69
2022/09/18 04:02:58;;;;;;;;;;;;;;;;;;1896810;28;7010;-71
2022/09/18 04:03:56;;;;;;;;;;;;;;;;;;1897226;28;7092;-68
2022/09/18 04:04:53;;;;;;;;;;;;;;;;;;1897454;28;7081;-69
2022/09/18 04:05:51;;;;;;;;;;;;;;;;;;1897366;28;7037;-69
2022/09/18 04:06:48;;;;;;;;;;;;;;;;;;1897101;28;7014;-69
2022/09/18 04:07:45;;;;;;;;;;;;;;;;;;1896808;28;7081;-69
2022/09/18 04:08:43;;;;;;;;;;;;;;;;;;1897505;28;7006;-67
2022/09/18 04:09:40;;;;;;;;;;;;;;;;;;1897126;28;7093;-69
2022/09/18 04:10:37;;;;;;;;;;;;;;;;;;1897313;28;7092;-71
2022/09/18 04:11:35;;;;;;;;;;;;;;;;;;1897665;28;7125;-70
2022/09/18 04:12:32;;;;;;;;;;;;;;;;;;1897954;28;7014;-68
2022/09/18 04:13:30;;;;;;;;;;;;;;;;;;1894974;28;7009;-69
2022/09/18 04:14:28;;;;;;;;;;;;;;;;;;1882715;28;7010;-69
2022/09/18 04:15:26;;;;;;;;;;;;;;;;;;1882808;28;7089;-68
2022/09/18 04:16:24;;;;;;;;;;;;;;;;;;1882193;28;7128;-69
2022/09/18 04:17:21;;;;;;;;;;;;;;;;;;1883246;28;7041;-69
2022/09/18 04:18:19;;;;;;;;;;;;;;;;;;1883052;28;7017;-69
2022/09/18 04:19:16;;;;;;;;;;;;;;;;;;1883428;28;7097;-70
2022/09/18 04:20:14;;;;;;;;;;;;;;;;;;1888139;28;7054;-68
2022/09/18 04:21:11;;;;;;;;;;;;;;;;;;1885172;28;7018;-69
2022/09/18 04:22:08;;;;;;;;;;;;;;;;;;1890882;28;7022;-68
2022/09/18 04:23:06;;;;;;;;;;;;;;;;;;1883979;28;7152;-68
2022/09/18 04:24:03;;;;;;;;;;;;;;;;;;1886668;28;7026;-68
2022/09/18 04:25:01;;;;;;;;;;;;;;;;;;1890999;28;7121;-69
2022/09/18 04:25:59;;;;;;;;;;;;;;;;;;1891373;28;8036;-68
2022/09/18 04:26:56;;;;;;;;;;;;;;;;;;1890312;28;7097;-69
2022/09/18 04:27:53;;;;;;;;;;;;;;;;;;1883183;28;7396;-68
2022/09/18 04:28:51;;;;;;;;;;;;;;;;;;1884543;28;7100;-67
2022/09/18 04:29:48;;;;;;;;;;;;;;;;;;1889643;28;7112;-69
2022/09/18 04:30:46;;;;;;;;;;;;;;;;;;1889689;28;7137;-68
2022/09/18 04:31:43;;;;;;;;;;;;;;;;;;1891180;28;8015;-69
2022/09/18 04:32:42;;;;;;;;;;;;;;;;;;1890663;28;7009;-69
2022/09/18 04:33:39;;;;;;;;;;;;;;;;;;1890950;28;7014;-68
2022/09/18 04:34:37;;;;;;;;;;;;;;;;;;1889596;28;7009;-70
2022/09/18 04:35:34;;;;;;;;;;;;;;;;;;1891158;28;7128;-67
2022/09/18 04:36:32;;;;;;;;;;;;;;;;;;1886162;28;7006;-70
2022/09/18 04:37:29;;;;;;;;;;;;;;;;;;1883434;28;7013;-67
2022/09/18 04:38:28;;;;;;;;;;;;;;;;;;1882938;28;7324;-68
2022/09/18 04:39:28;;;;;;;;;;;;;;;;;;1883562;28;7420;-70
2022/09/18 04:40:26;;;;;;;;;;;;;;;;;;1889316;28;7122;-71
2022/09/18 04:41:23;;;;;;;;;;;;;;;;;;1891281;28;7021;-70
2022/09/18 04:42:21;;;;;;;;;;;;;;;;;;1887314;28;7093;-68
2022/09/18 04:43:19;;;;;;;;;;;;;;;;;;1889768;28;7305;-69
2022/09/18 04:44:16;;;;;;;;;;;;;;;;;;1890528;28;7110;-70
2022/09/18 04:45:13;;;;;;;;;;;;;;;;;;1891525;28;7010;-69
2022/09/18 04:46:11;;;;;;;;;;;;;;;;;;1884973;28;7002;-68
2022/09/18 04:47:08;;;;;;;;;;;;;;;;;;1883895;28;7017;-67
2022/09/18 04:48:06;;;;;;;;;;;;;;;;;;1883745;28;7100;-69
2022/09/18 04:49:03;;;;;;;;;;;;;;;;;;1889710;28;7009;-70
2022/09/18 04:50:00;;;;;;;;;;;;;;;;;;1891230;28;7201;-69
2022/09/18 04:50:58;;;;;;;;;;;;;;;;;;1887357;28;7002;-70
2022/09/18 04:51:55;;;;;;;;;;;;;;;;;;1883913;28;7030;-70
2022/09/18 04:52:52;;;;;;;;;;;;;;;;;;1888334;28;7093;-69
2022/09/18 04:53:50;;;;;;;;;;;;;;;;;;1881174;28;7006;-69
2022/09/18 04:54:47;;;;;;;;;;;;;;;;;;1882791;28;7005;-68
2022/09/18 04:55:46;;;;;;;;;;;;;;;;;;1884705;28;7365;-71
2022/09/18 04:56:43;;;;;;;;;;;;;;;;;;1889144;28;7085;-69
2022/09/18 04:57:40;;;;;;;;;;;;;;;;;;1891188;28;7389;-70
2022/09/18 04:58:38;;;;;;;;;;;;;;;;;;1889588;28;7089;-69
2022/09/18 04:59:35;;;;;;;;;;;;;;;;;;1881262;28;7084;-70
2022/09/18 05:00:34;;;;;;;;;;;;;;;;;;1875650;28;7006;-69
2022/09/18 05:01:33;;;;;;;;;;;;;;;;;;1880165;28;7005;-68
2022/09/18 05:02:31;;;;;;;;;;;;;;;;;;1879472;28;8350;-69
2022/09/18 05:03:28;;;;;;;;;;;;;;;;;;1882678;28;7006;-70
2022/09/18 05:04:25;;;;;;;;;;;;;;;;;;1883374;28;7010;-69
2022/09/18 05:05:23;;;;;;;;;;;;;;;;;;1883038;28;7005;-67
2022/09/18 05:06:21;;;;;;;;;;;;;;;;;;1882532;28;7006;-70
2022/09/18 05:07:18;;;;;;;;;;;;;;;;;;1880625;28;7010;-70
2022/09/18 05:08:16;;;;;;;;;;;;;;;;;;1881473;28;8031;-69
2022/09/18 05:09:13;;;;;;;;;;;;;;;;;;1886241;28;7018;-69
2022/09/18 05:10:10;;;;;;;;;;;;;;;;;;1877127;28;7010;-69
2022/09/18 05:11:08;;;;;;;;;;;;;;;;;;1882549;28;7034;-69
2022/09/18 05:12:05;;;;;;;;;;;;;;;;;;1886442;28;7010;-69
2022/09/18 05:13:03;;;;;;;;;;;;;;;;;;1890563;28;7106;-70
2022/09/18 05:14:00;;;;;;;;;;;;;;;;;;1887507;28;7109;-70
2022/09/18 05:14:57;;;;;;;;;;;;;;;;;;1890164;28;7038;-69
2022/09/18 05:15:55;;;;;;;;;;;;;;;;;;1897712;28;7006;-70
2022/09/18 05:16:53;;;;;;;;;;;;;;;;;;1898067;28;7084;-69
2022/09/18 05:17:57;;;;;;;;;;;;;;;;;;1897968;28;8042;-70
2022/09/18 05:18:55;;;;;;;;;;;;;;;;;;1898638;28;7096;-67
2022/09/18 05:19:52;;;;;;;;;;;;;;;;;;1897981;28;7088;-69
2022/09/18 05:20:50;;;;;;;;;;;;;;;;;;1897923;28;7109;-69
2022/09/18 05:21:49;;;;;;;;;;;;;;;;;;1898398;28;7034;-69
2022/09/18 05:22:46;;;;;;;;;;;;;;;;;;1896869;28;7038;-70
2022/09/18 05:23:45;;;;;;;;;;;;;;;;;;1899197;28;7006;-67
2022/09/18 05:24:43;;;;;;;;;;;;;;;;;;1896950;28;7109;-70
2022/09/18 05:25:43;;;;;;;;;;;;;;;;;;1898075;28;7362;-70
2022/09/18 05:26:40;;;;;;;;;;;;;;;;;;1897949;28;7010;-69
2022/09/18 05:27:38;;;;;;;;;;;;;;;;;;1897977;28;8411;-70
2022/09/18 05:28:35;;;;;;;;;;;;;;;;;;1896056;28;7297;-70
2022/09/18 05:29:33;;;;;;;;;;;;;;;;;;1898304;28;6997;-69
2022/09/18 05:30:31;;;;;;;;;;;;;;;;;;1898428;28;7096;-69
2022/09/18 05:31:28;;;;;;;;;;;;;;;;;;1898398;28;7038;-69
2022/09/18 05:32:25;;;;;;;;;;;;;;;;;;1898178;28;7307;-69
2022/09/18 05:33:23;;;;;;;;;;;;;;;;;;1898056;28;7010;-67
2022/09/18 05:34:20;;;;;;;;;;;;;;;;;;1898018;28;7304;-68
2022/09/18 05:35:17;;;;;;;;;;;;;;;;;;1898120;28;7017;-69
2022/09/18 05:36:15;;;;;;;;;;;;;;;;;;1898427;28;7121;-67
2022/09/18 05:37:12;;;;;;;;;;;;;;;;;;1898720;28;7084;-68
2022/09/18 05:38:10;;;;;;;;;;;;;;;;;;1898206;28;7152;-69
2022/09/18 05:39:08;;;;;;;;;;;;;;;;;;1897654;28;7010;-69
2022/09/18 05:40:10;;;;;;;;;;;;;;;;;;1897565;28;7128;-70
2022/09/18 05:41:08;;;;;;;;;;;;;;;;;;1896883;28;7021;-68
2022/09/18 05:42:05;;;;;;;;;;;;;;;;;;1898003;28;7213;-70
2022/09/18 05:43:03;;;;;;;;;;;;;;;;;;1898091;28;7339;-70
2022/09/18 05:44:00;;;;;;;;;;;;;;;;;;1898163;28;7010;-71
2022/09/18 05:44:58;;;;;;;;;;;;;;;;;;1898496;28;7112;-68
2022/09/18 05:45:59;;;;;;;;;;;;;;;;;;1897607;28;7071;-67
2022/09/18 05:46:57;;;;;;;;;;;;;;;;;;1889863;28;7046;-68
2022/09/18 05:48:01;;;;;;;;;;;;;;;;;;1896831;28;7108;-68
2022/09/18 05:48:59;;;;;;;;;;;;;;;;;;1897928;28;7010;-68
2022/09/18 05:49:56;;;;;;;;;;;;;;;;;;1898014;28;7081;-69
2022/09/18 05:50:55;;;;;;;;;;;;;;;;;;1897632;28;7036;-69
2022/09/18 05:51:55;;;;;;;;;;;;;;;;;;1896392;28;8075;-70
2022/09/18 05:52:56;;;;;;;;;;;;;;;;;;1897586;28;7025;-70
2022/09/18 05:53:53;;;;;;;;;;;;;;;;;;1898293;28;7006;-69
2022/09/18 05:54:50;;;;;;;;;;;;;;;;;;1897649;28;7009;-70
2022/09/18 05:55:48;;;;;;;;;;;;;;;;;;1896637;28;7249;-68
2022/09/18 05:56:45;;;;;;;;;;;;;;;;;;1897383;28;7014;-69
2022/09/18 05:57:43;;;;;;;;;;;;;;;;;;1896607;28;7172;-68
2022/09/18 05:58:41;;;;;;;;;;;;;;;;;;1896750;28;7316;-68
2022/09/18 05:59:38;;;;;;;;;;;;;;;;;;1898042;28;7112;-68
2022/09/18 06:00:35;;;;;;;;;;;;;;;;;;1898075;28;7009;-69
2022/09/18 06:01:33;;;;;;;;;;;;;;;;;;1897628;28;7045;-70
2022/09/18 06:02:30;;;;;;;;;;;;;;;;;;1897909;28;7009;-69
2022/09/18 06:03:28;;;;;;;;;;;;;;;;;;1897860;28;7316;-69
2022/09/18 06:04:25;;;;;;;;;;;;;;;;;;1898066;28;7014;-68
2022/09/18 06:05:23;;;;;;;;;;;;;;;;;;1898055;28;7096;-68
2022/09/18 06:06:20;;;;;;;;;;;;;;;;;;1897729;28;7025;-68
2022/09/18 06:07:18;;;;;;;;;;;;;;;;;;1898557;28;7276;-70
2022/09/18 06:08:15;;;;;;;;;;;;;;;;;;1897754;28;7034;-68
2022/09/18 06:09:12;;;;;;;;;;;;;;;;;;1898340;28;7101;-69
2022/09/18 06:10:13;;;;;;;;;;;;;;;;;;1897712;28;7009;-70
2022/09/18 06:11:10;;;;;;;;;;;;;;;;;;1897827;28;7009;-69
2022/09/18 06:12:08;;;;;;;;;;;;;;;;;;1897459;28;8100;-69
2022/09/18 06:13:07;;;;;;;;;;;;;;;;;;1898488;28;7005;-69
2022/09/18 06:14:05;;;;;;;;;;;;;;;;;;1887644;28;7010;-68
2022/09/18 06:15:02;;;;;;;;;;;;;;;;;;1882843;28;8004;-68
2022/09/18 06:16:00;;;;;;;;;;;;;;;;;;1882492;28;7084;-69
2022/09/18 06:16:59;;;;;;;;;;;;;;;;;;1883314;28;8229;-69
2022/09/18 06:17:56;;;;;;;;;;;;;;;;;;1888641;28;8024;-69
2022/09/18 06:18:53;;;;;;;;;;;;;;;;;;1881285;28;7006;-69
2022/09/18 06:19:51;;;;;;;;;;;;;;;;;;1878001;28;7006;-69
2022/09/18 06:20:56;;;;;;;;;;;;;;;;;;1882211;28;7002;-69
2022/09/18 06:21:53;;;;;;;;;;;;;;;;;;1889754;28;7050;-68
2022/09/18 06:22:51;;;;;;;;;;;;;;;;;;1887213;28;7010;-68
2022/09/18 06:23:48;;;;;;;;;;;;;;;;;;1890288;28;7034;-68
2022/09/18 06:24:46;;;;;;;;;;;;;;;;;;1887426;28;7025;-67
2022/09/18 06:25:43;;;;;;;;;;;;;;;;;;1883209;28;7097;-69
2022/09/18 06:26:40;;;;;;;;;;;;;;;;;;1883546;28;8092;-69
2022/09/18 06:27:37;;;;;;;;;;;;;;;;;;1883210;28;7070;-70
2022/09/18 06:28:35;;;;;;;;;;;;;;;;;;1888756;28;7033;-69
2022/09/18 06:29:32;;;;;;;;;;;;;;;;;;1887352;28;7525;-68
2022/09/18 06:30:31;;;;;;;;;;;;;;;;;;1888588;28;7043;-70
2022/09/18 06:31:28;;;;;;;;;;;;;;;;;;1887762;28;7005;-68
2022/09/18 06:32:26;;;;;;;;;;;;;;;;;;1890343;28;8129;-68
2022/09/18 06:33:23;;;;;;;;;;;;;;;;;;1887629;28;7093;-70
2022/09/18 06:34:20;;;;;;;;;;;;;;;;;;1888881;28;7009;-70
2022/09/18 06:35:18;;;;;;;;;;;;;;;;;;1883929;28;7365;-69
2022/09/18 06:36:15;;;;;;;;;;;;;;;;;;1885270;28;7085;-69
2022/09/18 06:37:14;;;;;;;;;;;;;;;;;;1882690;28;7054;-69
2022/09/18 06:38:11;;;;;;;;;;;;;;;;;;1890209;28;7006;-69
2022/09/18 06:39:09;;;;;;;;;;;;;;;;;;1885782;28;7006;-67
2022/09/18 06:40:06;;;;;;;;;;;;;;;;;;1888678;28;7018;-69
2022/09/18 06:41:04;;;;;;;;;;;;;;;;;;1890055;28;7021;-69
2022/09/18 06:42:01;;;;;;;;;;;;;;;;;;1889861;28;7149;-69
2022/09/18 06:43:00;;;;;;;;;;;;;;;;;;1890049;28;7109;-69
2022/09/18 06:43:57;;;;;;;;;;;;;;;;;;1887639;28;7005;-68
2022/09/18 06:44:55;;;;;;;;;;;;;;;;;;1885091;28;7030;-70
2022/09/18 06:45:53;;;;;;;;;;;;;;;;;;1890005;28;7013;-69
2022/09/18 06:46:51;;;;;;;;;;;;;;;;;;1889596;28;7001;-67
2022/09/18 06:47:50;;;;;;;;;;;;;;;;;;1886177;28;7093;-69
2022/09/18 06:48:48;;;;;;;;;;;;;;;;;;1890752;28;8135;-69
2022/09/18 06:49:45;;;;;;;;;;;;;;;;;;1889281;28;7034;-67
2022/09/18 06:50:42;;;;;;;;;;;;;;;;;;1889651;28;7010;-71
2022/09/18 06:51:40;;;;;;;;;;;;;;;;;;1889969;28;7097;-70
2022/09/18 06:52:37;;;;;;;;;;;;;;;;;;1882931;28;7101;-68
2022/09/18 06:53:34;;;;;;;;;;;;;;;;;;1882509;28;8052;-70